sensor_id;sensor_type;location;lat;lon;timestamp;pressure;altitude;pressure_sealevel;temperature;humidity
22653;BME280;11493;43.344;26.226;2022-09-12T00:02:09;98819.84;;;19.51;83.13
22653;BME280;11493;43.344;26.226;2022-09-12T00:04:36;98821.78;;;19.47;84.00
22653;BME280;11493;43.344;26.226;2022-09-12T00:07:03;98832.56;;;19.49;84.87
22653;BME280;11493;43.344;26.226;2022-09-12T00:09:30;98832.44;;;19.34;84.97
22653;BME280;11493;43.344;26.226;2022-09-12T00:11:58;98843.66;;;19.42;85.31
22653;BME280;11493;43.344;26.226;2022-09-12T00:14:25;98833.69;;;19.41;84.56
22653;BME280;11493;43.344;26.226;2022-09-12T00:16:56;98847.44;;;19.63;83.97
22653;BME280;11493;43.344;26.226;2022-09-12T00:19:26;98847.06;;;19.65;83.68
22653;BME280;11493;43.344;26.226;2022-09-12T00:21:53;98841.03;;;19.59;83.73
22653;BME280;11493;43.344;26.226;2022-09-12T00:24:21;98836.59;;;19.51;84.42
22653;BME280;11493;43.344;26.226;2022-09-12T00:26:49;98826.53;;;19.43;84.46
22653;BME280;11493;43.344;26.226;2022-09-12T00:29:18;98821.69;;;19.36;84.46
22653;BME280;11493;43.344;26.226;2022-09-12T00:31:46;98823.25;;;19.34;84.92
22653;BME280;11493;43.344;26.226;2022-09-12T00:34:13;98821.28;;;19.34;84.77
22653;BME280;11493;43.344;26.226;2022-09-12T00:36:41;98817.25;;;19.28;84.49
22653;BME280;11493;43.344;26.226;2022-09-12T00:39:09;98829.25;;;19.36;85.01
22653;BME280;11493;43.344;26.226;2022-09-12T00:41:40;98828.44;;;19.35;84.98
22653;BME280;11493;43.344;26.226;2022-09-12T00:49:33;98804.50;;;19.27;85.55
22653;BME280;11493;43.344;26.226;2022-09-12T00:52:11;98798.84;;;19.20;85.71
22653;BME280;11493;43.344;26.226;2022-09-12T00:57:20;98814.03;;;19.23;85.83
22653;BME280;11493;43.344;26.226;2022-09-12T00:59:50;98811.13;;;19.12;85.90
22653;BME280;11493;43.344;26.226;2022-09-12T01:02:19;98809.16;;;19.13;85.79
22653;BME280;11493;43.344;26.226;2022-09-12T01:04:47;98808.34;;;19.12;85.77
22653;BME280;11493;43.344;26.226;2022-09-12T01:07:15;98814.28;;;19.07;86.67
22653;BME280;11493;43.344;26.226;2022-09-12T01:09:43;98820.28;;;19.09;86.50
22653;BME280;11493;43.344;26.226;2022-09-12T01:12:13;98809.00;;;18.98;86.32
22653;BME280;11493;43.344;26.226;2022-09-12T01:14:41;98811.34;;;18.93;87.06
22653;BME280;11493;43.344;26.226;2022-09-12T01:17:11;98812.88;;;18.87;87.37
22653;BME280;11493;43.344;26.226;2022-09-12T01:22:44;98821.69;;;18.92;88.28
22653;BME280;11493;43.344;26.226;2022-09-12T01:26:34;98815.31;;;18.92;87.74
22653;BME280;11493;43.344;26.226;2022-09-12T01:31:45;98805.78;;;18.93;88.26
22653;BME280;11493;43.344;26.226;2022-09-12T01:40:29;98803.25;;;18.81;88.26
22653;BME280;11493;43.344;26.226;2022-09-12T01:45:44;98782.56;;;18.82;87.04
22653;BME280;11493;43.344;26.226;2022-09-12T01:48:20;98787.41;;;18.88;86.74
22653;BME280;11493;43.344;26.226;2022-09-12T01:50:51;98782.94;;;18.80;87.11
22653;BME280;11493;43.344;26.226;2022-09-12T01:53:27;98784.94;;;18.80;87.76
22653;BME280;11493;43.344;26.226;2022-09-12T01:56:17;98774.84;;;18.68;88.43
22653;BME280;11493;43.344;26.226;2022-09-12T01:58:56;98770.81;;;18.62;89.21
22653;BME280;11493;43.344;26.226;2022-09-12T02:01:27;98763.31;;;18.69;88.73
22653;BME280;11493;43.344;26.226;2022-09-12T02:07:13;98767.56;;;18.56;90.08
22653;BME280;11493;43.344;26.226;2022-09-12T02:09:48;98758.34;;;18.52;89.67
22653;BME280;11493;43.344;26.226;2022-09-12T02:12:20;98763.50;;;18.50;90.14
22653;BME280;11493;43.344;26.226;2022-09-12T02:14:54;98753.59;;;18.53;89.45
22653;BME280;11493;43.344;26.226;2022-09-12T02:17:25;98755.19;;;18.57;90.04
22653;BME280;11493;43.344;26.226;2022-09-12T02:20:06;98762.44;;;18.62;89.48
22653;BME280;11493;43.344;26.226;2022-09-12T02:22:36;98767.66;;;18.67;89.35
22653;BME280;11493;43.344;26.226;2022-09-12T02:25:06;98754.00;;;18.55;89.13
22653;BME280;11493;43.344;26.226;2022-09-12T02:27:43;98765.16;;;18.58;89.29
22653;BME280;11493;43.344;26.226;2022-09-12T02:30:13;98757.28;;;18.64;89.04
22653;BME280;11493;43.344;26.226;2022-09-12T02:35:21;98741.75;;;18.63;88.83
22653;BME280;11493;43.344;26.226;2022-09-12T02:40:22;98737.38;;;18.62;89.71
22653;BME280;11493;43.344;26.226;2022-09-12T02:42:50;98744.06;;;18.57;89.29
22653;BME280;11493;43.344;26.226;2022-09-12T02:45:18;98746.47;;;18.59;89.09
22653;BME280;11493;43.344;26.226;2022-09-12T02:47:52;98747.25;;;18.59;88.87
22653;BME280;11493;43.344;26.226;2022-09-12T02:50:22;98741.34;;;18.61;88.53
22653;BME280;11493;43.344;26.226;2022-09-12T02:52:50;98751.22;;;18.58;89.07
22653;BME280;11493;43.344;26.226;2022-09-12T02:55:19;98752.41;;;18.54;89.48
22653;BME280;11493;43.344;26.226;2022-09-12T02:57:47;98747.31;;;18.63;89.00
22653;BME280;11493;43.344;26.226;2022-09-12T03:00:14;98749.63;;;18.54;89.65
22653;BME280;11493;43.344;26.226;2022-09-12T03:05:36;98764.78;;;18.56;89.37
22653;BME280;11493;43.344;26.226;2022-09-12T03:08:13;98765.50;;;18.50;89.07
22653;BME280;11493;43.344;26.226;2022-09-12T03:16:19;98769.72;;;18.36;90.49
22653;BME280;11493;43.344;26.226;2022-09-12T03:22:16;98765.63;;;18.27;90.69
22653;BME280;11493;43.344;26.226;2022-09-12T03:25:10;98763.22;;;18.25;91.44
22653;BME280;11493;43.344;26.226;2022-09-12T03:27:49;98768.03;;;18.28;90.46
22653;BME280;11493;43.344;26.226;2022-09-12T03:30:19;98765.59;;;18.23;90.51
22653;BME280;11493;43.344;26.226;2022-09-12T03:32:51;98770.78;;;18.25;90.12
22653;BME280;11493;43.344;26.226;2022-09-12T03:35:22;98757.56;;;18.18;90.18
22653;BME280;11493;43.344;26.226;2022-09-12T03:37:50;98777.47;;;18.20;90.19
22653;BME280;11493;43.344;26.226;2022-09-12T03:40:19;98773.47;;;18.18;89.66
22653;BME280;11493;43.344;26.226;2022-09-12T03:42:46;98763.88;;;18.15;89.78
22653;BME280;11493;43.344;26.226;2022-09-12T03:45:14;98757.81;;;18.06;89.68
22653;BME280;11493;43.344;26.226;2022-09-12T03:47:42;98776.59;;;18.13;89.90
22653;BME280;11493;43.344;26.226;2022-09-12T03:50:09;98759.78;;;18.05;89.85
22653;BME280;11493;43.344;26.226;2022-09-12T03:52:36;98769.75;;;18.06;89.62
22653;BME280;11493;43.344;26.226;2022-09-12T03:55:04;98775.25;;;18.03;89.35
22653;BME280;11493;43.344;26.226;2022-09-12T03:57:32;98779.13;;;17.95;89.63
22653;BME280;11493;43.344;26.226;2022-09-12T04:00:00;98780.25;;;17.90;89.68
22653;BME280;11493;43.344;26.226;2022-09-12T04:02:38;98774.66;;;17.87;89.99
22653;BME280;11493;43.344;26.226;2022-09-12T04:05:06;98768.16;;;17.76;89.77
22653;BME280;11493;43.344;26.226;2022-09-12T04:07:33;98770.94;;;17.76;89.81
22653;BME280;11493;43.344;26.226;2022-09-12T04:10:01;98771.38;;;17.78;89.73
22653;BME280;11493;43.344;26.226;2022-09-12T04:12:28;98780.09;;;17.76;89.75
22653;BME280;11493;43.344;26.226;2022-09-12T04:14:56;98783.66;;;17.77;89.47
22653;BME280;11493;43.344;26.226;2022-09-12T04:17:23;98790.47;;;17.79;89.34
22653;BME280;11493;43.344;26.226;2022-09-12T04:19:50;98786.78;;;17.71;89.88
22653;BME280;11493;43.344;26.226;2022-09-12T04:22:18;98790.31;;;17.68;89.46
22653;BME280;11493;43.344;26.226;2022-09-12T04:24:45;98789.56;;;17.71;89.83
22653;BME280;11493;43.344;26.226;2022-09-12T04:27:12;98779.56;;;17.67;89.76
22653;BME280;11493;43.344;26.226;2022-09-12T04:29:40;98792.66;;;17.66;89.91
22653;BME280;11493;43.344;26.226;2022-09-12T04:32:07;98807.00;;;17.68;90.03
22653;BME280;11493;43.344;26.226;2022-09-12T04:34:34;98809.41;;;17.70;89.95
22653;BME280;11493;43.344;26.226;2022-09-12T04:37:02;98811.25;;;17.62;89.46
22653;BME280;11493;43.344;26.226;2022-09-12T04:39:29;98812.84;;;17.63;88.99
22653;BME280;11493;43.344;26.226;2022-09-12T04:41:56;98812.00;;;17.59;89.19
22653;BME280;11493;43.344;26.226;2022-09-12T04:44:24;98820.13;;;17.68;89.15
22653;BME280;11493;43.344;26.226;2022-09-12T04:46:51;98832.84;;;17.69;89.11
22653;BME280;11493;43.344;26.226;2022-09-12T04:49:18;98832.91;;;17.72;89.07
22653;BME280;11493;43.344;26.226;2022-09-12T04:51:46;98831.72;;;17.73;88.87
22653;BME280;11493;43.344;26.226;2022-09-12T04:54:17;98838.47;;;17.72;88.19
22653;BME280;11493;43.344;26.226;2022-09-12T04:56:47;98815.34;;;17.68;88.36
22653;BME280;11493;43.344;26.226;2022-09-12T04:59:16;98826.16;;;17.73;88.08
22653;BME280;11493;43.344;26.226;2022-09-12T05:01:48;98826.34;;;17.88;87.60
22653;BME280;11493;43.344;26.226;2022-09-12T05:04:19;98819.13;;;17.83;87.34
22653;BME280;11493;43.344;26.226;2022-09-12T05:06:47;98825.84;;;17.79;88.00
22653;BME280;11493;43.344;26.226;2022-09-12T05:09:15;98831.84;;;17.81;88.37
22653;BME280;11493;43.344;26.226;2022-09-12T05:11:43;98826.66;;;17.83;88.19
22653;BME280;11493;43.344;26.226;2022-09-12T05:14:34;98834.03;;;17.98;87.93
22653;BME280;11493;43.344;26.226;2022-09-12T05:17:12;98813.97;;;17.85;87.42
22653;BME280;11493;43.344;26.226;2022-09-12T05:19:40;98832.50;;;18.00;87.67
22653;BME280;11493;43.344;26.226;2022-09-12T05:22:08;98849.25;;;18.04;86.57
22653;BME280;11493;43.344;26.226;2022-09-12T05:24:35;98830.94;;;18.03;86.50
22653;BME280;11493;43.344;26.226;2022-09-12T05:27:19;98822.88;;;17.94;87.59
22653;BME280;11493;43.344;26.226;2022-09-12T05:29:47;98848.06;;;18.05;86.45
22653;BME280;11493;43.344;26.226;2022-09-12T05:32:14;98846.69;;;17.92;86.62
22653;BME280;11493;43.344;26.226;2022-09-12T05:34:41;98842.72;;;17.93;86.60
22653;BME280;11493;43.344;26.226;2022-09-12T05:37:08;98845.19;;;17.98;86.76
22653;BME280;11493;43.344;26.226;2022-09-12T05:39:36;98828.75;;;17.89;86.69
22653;BME280;11493;43.344;26.226;2022-09-12T05:42:04;98840.16;;;18.07;86.66
22653;BME280;11493;43.344;26.226;2022-09-12T05:44:32;98839.06;;;18.15;86.34
22653;BME280;11493;43.344;26.226;2022-09-12T05:47:00;98843.84;;;18.15;86.71
22653;BME280;11493;43.344;26.226;2022-09-12T05:49:27;98831.56;;;18.19;86.35
22653;BME280;11493;43.344;26.226;2022-09-12T05:51:55;98845.53;;;18.23;86.27
22653;BME280;11493;43.344;26.226;2022-09-12T05:54:23;98828.06;;;18.26;85.66
22653;BME280;11493;43.344;26.226;2022-09-12T05:56:56;98826.94;;;18.30;86.00
22653;BME280;11493;43.344;26.226;2022-09-12T05:59:24;98840.19;;;18.41;84.40
22653;BME280;11493;43.344;26.226;2022-09-12T06:01:51;98838.63;;;18.43;84.03
22653;BME280;11493;43.344;26.226;2022-09-12T06:04:18;98850.22;;;18.45;84.67
22653;BME280;11493;43.344;26.226;2022-09-12T06:06:46;98834.72;;;18.48;85.32
22653;BME280;11493;43.344;26.226;2022-09-12T06:09:15;98847.94;;;18.58;84.29
22653;BME280;11493;43.344;26.226;2022-09-12T06:11:43;98837.94;;;18.50;83.99
22653;BME280;11493;43.344;26.226;2022-09-12T06:14:13;98841.94;;;18.52;83.86
22653;BME280;11493;43.344;26.226;2022-09-12T06:16:41;98859.09;;;18.58;84.82
22653;BME280;11493;43.344;26.226;2022-09-12T06:19:17;98841.19;;;18.59;83.52
22653;BME280;11493;43.344;26.226;2022-09-12T06:21:45;98860.91;;;18.73;83.00
22653;BME280;11493;43.344;26.226;2022-09-12T06:24:17;98855.00;;;18.78;82.25
22653;BME280;11493;43.344;26.226;2022-09-12T06:26:46;98855.50;;;18.87;81.92
22653;BME280;11493;43.344;26.226;2022-09-12T06:29:15;98863.94;;;18.94;81.13
22653;BME280;11493;43.344;26.226;2022-09-12T06:31:43;98855.16;;;18.92;81.29
22653;BME280;11493;43.344;26.226;2022-09-12T06:34:13;98870.34;;;18.98;81.39
22653;BME280;11493;43.344;26.226;2022-09-12T06:36:44;98863.59;;;18.99;80.30
22653;BME280;11493;43.344;26.226;2022-09-12T06:39:16;98861.22;;;19.01;80.90
22653;BME280;11493;43.344;26.226;2022-09-12T06:41:45;98868.31;;;18.95;81.10
22653;BME280;11493;43.344;26.226;2022-09-12T06:44:20;98875.91;;;18.98;81.25
22653;BME280;11493;43.344;26.226;2022-09-12T06:46:48;98866.19;;;19.19;80.55
22653;BME280;11493;43.344;26.226;2022-09-12T06:49:16;98869.41;;;19.24;79.75
22653;BME280;11493;43.344;26.226;2022-09-12T06:51:43;98873.81;;;19.25;79.97
22653;BME280;11493;43.344;26.226;2022-09-12T06:54:14;98870.69;;;19.30;79.90
22653;BME280;11493;43.344;26.226;2022-09-12T06:56:43;98865.97;;;19.42;79.23
22653;BME280;11493;43.344;26.226;2022-09-12T06:59:11;98874.03;;;19.50;79.03
22653;BME280;11493;43.344;26.226;2022-09-12T07:01:39;98862.94;;;19.57;78.77
22653;BME280;11493;43.344;26.226;2022-09-12T07:04:08;98870.63;;;19.67;78.91
22653;BME280;11493;43.344;26.226;2022-09-12T07:06:38;98871.97;;;19.88;76.83
22653;BME280;11493;43.344;26.226;2022-09-12T07:09:09;98868.34;;;19.84;76.68
22653;BME280;11493;43.344;26.226;2022-09-12T07:11:38;98870.44;;;19.97;77.24
22653;BME280;11493;43.344;26.226;2022-09-12T07:14:07;98862.47;;;19.99;77.30
22653;BME280;11493;43.344;26.226;2022-09-12T07:16:35;98858.91;;;20.06;75.59
22653;BME280;11493;43.344;26.226;2022-09-12T07:19:04;98859.38;;;20.19;75.43
22653;BME280;11493;43.344;26.226;2022-09-12T07:21:31;98854.25;;;20.31;74.88
22653;BME280;11493;43.344;26.226;2022-09-12T07:23:58;98854.63;;;20.23;75.01
22653;BME280;11493;43.344;26.226;2022-09-12T07:26:27;98865.53;;;20.42;74.44
22653;BME280;11493;43.344;26.226;2022-09-12T07:28:56;98862.72;;;20.39;73.72
22653;BME280;11493;43.344;26.226;2022-09-12T07:31:45;98857.97;;;20.46;73.97
22653;BME280;11493;43.344;26.226;2022-09-12T07:34:13;98869.16;;;20.53;72.60
22653;BME280;11493;43.344;26.226;2022-09-12T07:36:41;98862.03;;;20.63;72.05
22653;BME280;11493;43.344;26.226;2022-09-12T07:39:10;98866.06;;;20.73;72.36
22653;BME280;11493;43.344;26.226;2022-09-12T07:41:37;98862.09;;;20.77;71.43
22653;BME280;11493;43.344;26.226;2022-09-12T07:44:05;98848.91;;;20.78;72.48
22653;BME280;11493;43.344;26.226;2022-09-12T07:46:35;98854.09;;;20.90;72.02
22653;BME280;11493;43.344;26.226;2022-09-12T07:49:02;98857.34;;;21.03;71.67
22653;BME280;11493;43.344;26.226;2022-09-12T07:51:30;98856.53;;;20.98;71.37
22653;BME280;11493;43.344;26.226;2022-09-12T07:53:58;98862.94;;;21.03;71.28
22653;BME280;11493;43.344;26.226;2022-09-12T07:56:26;98848.13;;;20.98;72.09
22653;BME280;11493;43.344;26.226;2022-09-12T07:58:57;98862.16;;;21.13;72.17
22653;BME280;11493;43.344;26.226;2022-09-12T08:01:25;98853.41;;;21.25;71.64
22653;BME280;11493;43.344;26.226;2022-09-12T08:03:58;98851.44;;;21.33;71.35
22653;BME280;11493;43.344;26.226;2022-09-12T08:06:27;98850.66;;;21.46;69.52
22653;BME280;11493;43.344;26.226;2022-09-12T08:08:57;98863.03;;;21.45;69.92
22653;BME280;11493;43.344;26.226;2022-09-12T08:11:27;98869.00;;;21.54;68.81
22653;BME280;11493;43.344;26.226;2022-09-12T08:13:55;98847.84;;;21.50;68.69
22653;BME280;11493;43.344;26.226;2022-09-12T08:16:28;98846.25;;;21.45;68.94
22653;BME280;11493;43.344;26.226;2022-09-12T08:18:59;98848.63;;;21.57;70.07
22653;BME280;11493;43.344;26.226;2022-09-12T08:21:29;98841.41;;;21.60;68.26
22653;BME280;11493;43.344;26.226;2022-09-12T08:24:02;98839.00;;;21.73;68.98
22653;BME280;11493;43.344;26.226;2022-09-12T08:26:31;98843.00;;;21.86;68.15
22653;BME280;11493;43.344;26.226;2022-09-12T08:28:59;98842.22;;;21.82;67.28
22653;BME280;11493;43.344;26.226;2022-09-12T08:31:27;98837.81;;;21.84;66.64
22653;BME280;11493;43.344;26.226;2022-09-12T08:33:58;98851.00;;;21.84;67.96
22653;BME280;11493;43.344;26.226;2022-09-12T08:36:27;98844.59;;;21.94;66.63
22653;BME280;11493;43.344;26.226;2022-09-12T08:39:01;98833.81;;;22.03;66.38
22653;BME280;11493;43.344;26.226;2022-09-12T08:44:27;98836.59;;;22.00;65.53
22653;BME280;11493;43.344;26.226;2022-09-12T08:49:32;98830.19;;;21.81;64.51
22653;BME280;11493;43.344;26.226;2022-09-12T08:52:13;98829.81;;;21.76;65.01
22653;BME280;11493;43.344;26.226;2022-09-12T08:54:43;98827.41;;;21.85;66.08
22653;BME280;11493;43.344;26.226;2022-09-12T08:57:14;98829.41;;;21.88;65.88
22653;BME280;11493;43.344;26.226;2022-09-12T08:59:43;98825.00;;;21.94;65.77
22653;BME280;11493;43.344;26.226;2022-09-12T09:10:50;98805.34;;;22.15;63.65
22653;BME280;11493;43.344;26.226;2022-09-12T09:18:48;98800.03;;;22.39;62.96
22653;BME280;11493;43.344;26.226;2022-09-12T09:24:13;98814.09;;;22.32;61.68
22653;BME280;11493;43.344;26.226;2022-09-12T09:26:57;98803.69;;;22.28;62.80
22653;BME280;11493;43.344;26.226;2022-09-12T09:29:37;98825.75;;;22.23;60.49
22653;BME280;11493;43.344;26.226;2022-09-12T09:32:17;98806.56;;;22.00;61.92
22653;BME280;11493;43.344;26.226;2022-09-12T09:34:45;98802.13;;;22.20;62.95
22653;BME280;11493;43.344;26.226;2022-09-12T09:45:24;98800.22;;;22.90;60.33
22653;BME280;11493;43.344;26.226;2022-09-12T09:48:10;98791.00;;;22.90;61.77
22653;BME280;11493;43.344;26.226;2022-09-12T09:50:47;98797.75;;;23.00;60.28
22653;BME280;11493;43.344;26.226;2022-09-12T09:53:35;98802.41;;;23.20;58.29
22653;BME280;11493;43.344;26.226;2022-09-12T09:56:09;98772.69;;;23.26;58.75
22653;BME280;11493;43.344;26.226;2022-09-12T09:58:38;98807.38;;;23.50;55.50
22653;BME280;11493;43.344;26.226;2022-09-12T10:01:16;98791.72;;;23.56;56.89
22653;BME280;11493;43.344;26.226;2022-09-12T10:04:02;98798.41;;;23.70;55.48
22653;BME280;11493;43.344;26.226;2022-09-12T10:06:36;98778.84;;;23.59;53.43
22653;BME280;11493;43.344;26.226;2022-09-12T10:09:28;98788.34;;;23.72;54.68
22653;BME280;11493;43.344;26.226;2022-09-12T10:11:55;98789.25;;;23.62;56.08
22653;BME280;11493;43.344;26.226;2022-09-12T10:14:30;98780.78;;;23.66;55.34
22653;BME280;11493;43.344;26.226;2022-09-12T10:16:57;98769.91;;;23.71;55.44
22653;BME280;11493;43.344;26.226;2022-09-12T10:19:37;98796.44;;;23.67;55.09
22653;BME280;11493;43.344;26.226;2022-09-12T10:22:05;98785.88;;;23.78;57.61
22653;BME280;11493;43.344;26.226;2022-09-12T10:24:36;98776.94;;;23.86;54.51
22653;BME280;11493;43.344;26.226;2022-09-12T10:27:13;98782.78;;;24.03;52.99
22653;BME280;11493;43.344;26.226;2022-09-12T10:29:51;98773.53;;;24.06;54.81
22653;BME280;11493;43.344;26.226;2022-09-12T10:32:28;98784.34;;;23.73;55.00
22653;BME280;11493;43.344;26.226;2022-09-12T10:35:05;98794.16;;;23.47;55.72
22653;BME280;11493;43.344;26.226;2022-09-12T10:37:37;98775.28;;;23.55;55.35
22653;BME280;11493;43.344;26.226;2022-09-12T10:40:19;98785.78;;;23.85;54.78
22653;BME280;11493;43.344;26.226;2022-09-12T10:42:53;98782.75;;;24.06;57.59
22653;BME280;11493;43.344;26.226;2022-09-12T10:45:31;98787.03;;;24.18;54.98
22653;BME280;11493;43.344;26.226;2022-09-12T10:50:46;98769.28;;;23.49;55.56
22653;BME280;11493;43.344;26.226;2022-09-12T11:01:17;98779.03;;;23.79;54.35
22653;BME280;11493;43.344;26.226;2022-09-12T11:12:45;98782.91;;;23.54;53.12
22653;BME280;11493;43.344;26.226;2022-09-12T11:18:41;98775.59;;;23.64;52.64
22653;BME280;11493;43.344;26.226;2022-09-12T11:32:56;98765.59;;;23.08;53.38
22653;BME280;11493;43.344;26.226;2022-09-12T11:35:28;98768.44;;;23.04;53.80
22653;BME280;11493;43.344;26.226;2022-09-12T11:41:07;98766.59;;;22.83;54.15
22653;BME280;11493;43.344;26.226;2022-09-12T11:43:59;98766.16;;;22.88;54.56
22653;BME280;11493;43.344;26.226;2022-09-12T11:46:36;98755.97;;;23.09;53.67
22653;BME280;11493;43.344;26.226;2022-09-12T11:54:31;98747.81;;;23.28;50.74
22653;BME280;11493;43.344;26.226;2022-09-12T11:59:51;98743.16;;;23.08;50.95
22653;BME280;11493;43.344;26.226;2022-09-12T12:02:35;98726.66;;;23.17;51.59
22653;BME280;11493;43.344;26.226;2022-09-12T12:07:58;98746.53;;;23.78;51.69
22653;BME280;11493;43.344;26.226;2022-09-12T12:10:43;98747.28;;;23.82;50.78
22653;BME280;11493;43.344;26.226;2022-09-12T12:13:22;98751.81;;;23.76;51.78
22653;BME280;11493;43.344;26.226;2022-09-12T12:15:59;98735.56;;;23.53;51.94
22653;BME280;11493;43.344;26.226;2022-09-12T12:18:32;98739.03;;;23.68;51.88
22653;BME280;11493;43.344;26.226;2022-09-12T12:34:34;98753.41;;;23.77;51.15
22653;BME280;11493;43.344;26.226;2022-09-12T12:39:58;98731.91;;;23.59;53.25
22653;BME280;11493;43.344;26.226;2022-09-12T12:45:02;98723.53;;;23.90;52.02
22653;BME280;11493;43.344;26.226;2022-09-12T12:50:12;98712.97;;;24.01;51.12
22653;BME280;11493;43.344;26.226;2022-09-12T12:52:59;98720.69;;;24.28;49.29
22653;BME280;11493;43.344;26.226;2022-09-12T12:55:45;98716.94;;;24.38;51.15
22653;BME280;11493;43.344;26.226;2022-09-12T13:03:40;98736.81;;;23.86;51.56
22653;BME280;11493;43.344;26.226;2022-09-12T13:06:39;98745.03;;;23.70;52.98
22653;BME280;11493;43.344;26.226;2022-09-12T13:09:36;98736.66;;;23.66;52.82
22653;BME280;11493;43.344;26.226;2022-09-12T13:12:10;98738.59;;;23.73;52.54
22653;BME280;11493;43.344;26.226;2022-09-12T13:17:38;98731.97;;;23.90;51.42
22653;BME280;11493;43.344;26.226;2022-09-12T13:20:27;98725.41;;;24.00;50.48
22653;BME280;11493;43.344;26.226;2022-09-12T13:22:56;98724.16;;;24.05;49.66
22653;BME280;11493;43.344;26.226;2022-09-12T13:25:31;98720.50;;;24.08;49.59
22653;BME280;11493;43.344;26.226;2022-09-12T13:28:16;98715.50;;;24.22;49.37
22653;BME280;11493;43.344;26.226;2022-09-12T13:31:20;98717.84;;;24.31;49.98
22653;BME280;11493;43.344;26.226;2022-09-12T13:33:52;98720.09;;;24.43;50.25
22653;BME280;11493;43.344;26.226;2022-09-12T13:44:46;98718.81;;;24.48;48.64
22653;BME280;11493;43.344;26.226;2022-09-12T13:48:04;98725.91;;;24.56;49.13
22653;BME280;11493;43.344;26.226;2022-09-12T13:50:39;98720.94;;;24.67;48.74
22653;BME280;11493;43.344;26.226;2022-09-12T13:53:16;98726.75;;;24.53;48.69
22653;BME280;11493;43.344;26.226;2022-09-12T13:55:48;98724.13;;;24.42;49.38
22653;BME280;11493;43.344;26.226;2022-09-12T13:58:26;98724.13;;;24.42;49.32
22653;BME280;11493;43.344;26.226;2022-09-12T14:01:04;98724.63;;;24.34;48.95
22653;BME280;11493;43.344;26.226;2022-09-12T14:03:51;98720.34;;;24.22;49.71
22653;BME280;11493;43.344;26.226;2022-09-12T14:06:45;98733.22;;;24.19;50.14
22653;BME280;11493;43.344;26.226;2022-09-12T14:09:22;98722.53;;;24.07;51.78
22653;BME280;11493;43.344;26.226;2022-09-12T14:11:51;98717.44;;;23.95;50.99
22653;BME280;11493;43.344;26.226;2022-09-12T14:14:49;98720.59;;;24.01;51.14
22653;BME280;11493;43.344;26.226;2022-09-12T14:17:23;98712.75;;;23.85;50.69
22653;BME280;11493;43.344;26.226;2022-09-12T14:19:55;98724.88;;;23.78;50.76
22653;BME280;11493;43.344;26.226;2022-09-12T14:22:26;98726.53;;;23.76;51.05
22653;BME280;11493;43.344;26.226;2022-09-12T14:24:56;98707.44;;;23.60;51.05
22653;BME280;11493;43.344;26.226;2022-09-12T14:27:40;98719.22;;;23.82;52.15
22653;BME280;11493;43.344;26.226;2022-09-12T14:30:28;98728.56;;;23.72;51.77
22653;BME280;11493;43.344;26.226;2022-09-12T14:33:13;98724.97;;;23.71;52.41
22653;BME280;11493;43.344;26.226;2022-09-12T14:35:49;98730.19;;;23.69;52.74
22653;BME280;11493;43.344;26.226;2022-09-12T14:38:32;98727.88;;;23.61;52.13
22653;BME280;11493;43.344;26.226;2022-09-12T14:41:05;98732.75;;;23.56;52.43
22653;BME280;11493;43.344;26.226;2022-09-12T14:43:37;98731.06;;;23.63;52.88
22653;BME280;11493;43.344;26.226;2022-09-12T14:49:09;98724.31;;;23.56;53.14
22653;BME280;11493;43.344;26.226;2022-09-12T14:51:51;98717.91;;;23.56;53.26
22653;BME280;11493;43.344;26.226;2022-09-12T14:57:00;98716.75;;;23.46;52.19
22653;BME280;11493;43.344;26.226;2022-09-12T14:59:38;98719.59;;;23.43;53.42
22653;BME280;11493;43.344;26.226;2022-09-12T15:07:39;98718.81;;;23.42;52.82
22653;BME280;11493;43.344;26.226;2022-09-12T15:12:44;98720.81;;;23.42;53.61
22653;BME280;11493;43.344;26.226;2022-09-12T15:15:19;98710.03;;;23.37;53.18
22653;BME280;11493;43.344;26.226;2022-09-12T15:17:48;98716.50;;;23.30;53.50
22653;BME280;11493;43.344;26.226;2022-09-12T15:20:19;98718.13;;;23.27;53.08
22653;BME280;11493;43.344;26.226;2022-09-12T15:22:48;98707.44;;;23.12;53.49
22653;BME280;11493;43.344;26.226;2022-09-12T15:25:16;98721.50;;;23.08;53.64
22653;BME280;11493;43.344;26.226;2022-09-12T15:27:45;98721.47;;;23.12;53.59
22653;BME280;11493;43.344;26.226;2022-09-12T15:30:13;98722.34;;;23.05;53.53
22653;BME280;11493;43.344;26.226;2022-09-12T15:32:42;98707.06;;;23.10;53.69
22653;BME280;11493;43.344;26.226;2022-09-12T15:35:23;98716.56;;;23.23;53.43
22653;BME280;11493;43.344;26.226;2022-09-12T15:37:51;98711.84;;;23.13;53.43
22653;BME280;11493;43.344;26.226;2022-09-12T15:40:20;98708.59;;;23.18;53.24
22653;BME280;11493;43.344;26.226;2022-09-12T15:42:48;98709.03;;;23.13;53.15
22653;BME280;11493;43.344;26.226;2022-09-12T15:45:21;98710.25;;;23.12;53.78
22653;BME280;11493;43.344;26.226;2022-09-12T15:47:53;98715.94;;;23.05;53.05
22653;BME280;11493;43.344;26.226;2022-09-12T15:50:24;98715.25;;;22.93;53.64
22653;BME280;11493;43.344;26.226;2022-09-12T15:52:56;98714.50;;;22.82;53.87
22653;BME280;11493;43.344;26.226;2022-09-12T15:55:27;98707.75;;;22.69;54.80
22653;BME280;11493;43.344;26.226;2022-09-12T15:57:55;98716.19;;;22.69;54.33
22653;BME280;11493;43.344;26.226;2022-09-12T16:00:23;98716.16;;;22.73;53.83
22653;BME280;11493;43.344;26.226;2022-09-12T16:02:52;98701.81;;;22.60;54.56
22653;BME280;11493;43.344;26.226;2022-09-12T16:05:22;98703.41;;;22.61;54.80
22653;BME280;11493;43.344;26.226;2022-09-12T16:07:53;98707.41;;;22.63;54.68
22653;BME280;11493;43.344;26.226;2022-09-12T16:10:24;98707.47;;;22.53;54.31
22653;BME280;11493;43.344;26.226;2022-09-12T16:12:52;98704.69;;;22.46;54.29